createdAt,value
2022-08-22T00:03:16.000Z,75.36
2022-08-22T00:07:35.000Z,75.36
2022-08-22T00:12:35.000Z,70.08
2022-08-22T00:17:34.000Z,74.5
2022-08-22T00:22:35.000Z,72.39
2022-08-22T00:27:35.000Z,71.69
2022-08-22T00:32:35.000Z,65.32
2022-08-22T00:37:35.000Z,67.99
2022-08-22T00:42:42.000Z,68.7
2022-08-22T00:47:35.000Z,66.6
2022-08-22T00:52:34.000Z,68.45
2022-08-22T00:57:34.000Z,63.14
2022-08-22T01:02:34.000Z,64.26
2022-08-22T01:07:47.000Z,62.55
2022-08-22T01:12:35.000Z,62.75
2022-08-22T01:17:34.000Z,64.15
2022-08-22T01:22:34.000Z,64.15
2022-08-22T01:27:36.000Z,63.36
2022-08-22T01:32:34.000Z,63.56
2022-08-22T01:37:34.000Z,61.49
2022-08-22T01:42:34.000Z,61.96
2022-08-22T01:47:35.000Z,63.02
2022-08-22T01:52:35.000Z,62.43
2022-08-22T01:57:34.000Z,61.58
2022-08-22T02:02:35.000Z,62.17
2022-08-22T02:07:42.000Z,64.88
2022-08-22T02:12:34.000Z,64.33
2022-08-22T02:17:35.000Z,67.9
2022-08-22T02:22:35.000Z,66.16
2022-08-22T02:32:35.000Z,71.32
2022-08-22T02:37:35.000Z,67.43
2022-08-22T02:42:35.000Z,67.09
2022-08-22T02:47:34.000Z,67.48
2022-08-22T02:52:35.000Z,68.86
2022-08-22T02:57:36.000Z,69.83
2022-08-22T03:02:34.000Z,69.1
2022-08-22T03:07:34.000Z,71.45
2022-08-22T03:12:35.000Z,74.62
2022-08-22T03:17:35.000Z,75.99
2022-08-22T03:22:35.000Z,75.99
2022-08-22T03:27:43.000Z,79.55
2022-08-22T03:32:34.000Z,83.68
2022-08-22T03:37:35.000Z,86.61
2022-08-22T03:42:35.000Z,90.11
2022-08-22T03:47:38.000Z,92.31
2022-08-22T03:52:35.000Z,94.7
2022-08-22T03:57:34.000Z,98.34
2022-08-22T04:02:54.000Z,99.02
2022-08-22T04:07:41.000Z,102.87
2022-08-22T04:12:34.000Z,106.17
2022-08-22T04:17:34.000Z,107.09
2022-08-22T04:22:35.000Z,111.14
2022-08-22T04:27:35.000Z,112.53
2022-08-22T04:32:34.000Z,114.99
2022-08-22T04:37:35.000Z,114.99
2022-08-22T04:42:43.000Z,120.64
2022-08-22T04:47:34.000Z,125.86
2022-08-22T04:52:39.000Z,130.94
2022-08-22T04:57:34.000Z,134.6
2022-08-22T05:02:35.000Z,134.8
2022-08-22T05:07:35.000Z,134.38
2022-08-22T05:12:39.000Z,136.22
2022-08-22T05:17:35.000Z,135.84
2022-08-22T05:22:35.000Z,135.56
2022-08-22T05:27:35.000Z,138.16
2022-08-22T05:32:35.000Z,137.67
2022-08-22T05:37:35.000Z,135.39
2022-08-22T05:42:35.000Z,135.68
2022-08-22T05:47:34.000Z,136.36
2022-08-22T05:52:38.000Z,136.26
2022-08-22T05:57:35.000Z,136.26
2022-08-22T06:02:35.000Z,127.79
2022-08-22T06:07:35.000Z,128.47
2022-08-22T06:12:35.000Z,120.65
2022-08-22T06:17:35.000Z,114.61
2022-08-22T06:22:35.000Z,113.94
2022-08-22T06:27:34.000Z,111.9
2022-08-22T06:33:09.000Z,110.06
2022-08-22T06:37:35.000Z,109.72
2022-08-22T06:42:34.000Z,106.14
2022-08-22T06:47:34.000Z,101.04
2022-08-22T06:52:34.000Z,99.94
2022-08-22T06:57:34.000Z,100.4
2022-08-22T07:02:35.000Z,100.22
2022-08-22T07:07:35.000Z,100.22
2022-08-22T07:12:34.000Z,100.45
2022-08-22T07:17:35.000Z,101.18
2022-08-22T07:22:34.000Z,103.42
2022-08-22T07:27:34.000Z,103.81
2022-08-22T07:32:35.000Z,100.69
2022-08-22T07:37:34.000Z,102.95
2022-08-22T07:42:40.000Z,99.94
2022-08-22T07:47:36.000Z,102.01
2022-08-22T07:52:34.000Z,100.63
2022-08-22T07:57:35.000Z,99.51
2022-08-22T08:02:35.000Z,99.89
2022-08-22T08:07:35.000Z,99.33
2022-08-22T08:12:35.000Z,98.82
2022-08-22T08:17:40.000Z,93.31
2022-08-22T08:22:35.000Z,93.31
2022-08-22T08:27:35.000Z,91.46
2022-08-22T08:32:34.000Z,94
2022-08-22T08:37:34.000Z,95.46
2022-08-22T08:42:35.000Z,93.64
2022-08-22T08:47:34.000Z,92.11
2022-08-22T08:52:35.000Z,88.36
2022-08-22T08:57:35.000Z,86.22
2022-08-22T09:02:35.000Z,75.48
2022-08-22T09:07:35.000Z,70.03
2022-08-22T09:12:35.000Z,63.69
2022-08-22T09:17:35.000Z,75.24
2022-08-22T09:22:35.000Z,71.52
2022-08-22T09:27:35.000Z,55.9
2022-08-22T09:32:35.000Z,45.54
2022-08-22T09:37:35.000Z,45.54
2022-08-22T09:42:35.000Z,40.36
2022-08-22T09:47:35.000Z,38.92
2022-08-22T09:52:45.000Z,41.59
2022-08-22T09:57:35.000Z,40.74
2022-08-22T10:02:35.000Z,34.77
2022-08-22T10:07:34.000Z,34.52
2022-08-22T10:12:35.000Z,34.66
2022-08-22T10:17:34.000Z,35.25
2022-08-22T10:22:41.000Z,34.9
2022-08-22T10:27:39.000Z,34.89
2022-08-22T10:32:37.000Z,35.09
2022-08-22T10:37:35.000Z,38.92
2022-08-22T10:42:38.000Z,38.42
2022-08-22T10:47:35.000Z,35.02
2022-08-22T10:52:34.000Z,35.02
2022-08-22T10:57:34.000Z,34.69
2022-08-22T11:02:35.000Z,33.59
2022-08-22T11:07:34.000Z,29.58
2022-08-22T11:12:45.000Z,32.35
2022-08-22T11:17:42.000Z,34.04
2022-08-22T11:22:36.000Z,33.34
2022-08-22T11:32:35.000Z,32.11
2022-08-22T11:37:53.000Z,27.64
2022-08-22T11:42:39.000Z,26.65
2022-08-22T11:47:39.000Z,27.07
2022-08-22T11:52:35.000Z,24.06
2022-08-22T11:57:35.000Z,18.13
2022-08-22T12:02:35.000Z,19.56
2022-08-22T12:07:35.000Z,19.56
2022-08-22T12:12:35.000Z,20.12
2022-08-22T12:18:06.000Z,20.14
2022-08-22T12:22:39.000Z,17.32
2022-08-22T12:27:39.000Z,15.18
2022-08-22T12:32:38.000Z,15.53
2022-08-22T12:37:34.000Z,13.77
2022-08-22T12:42:35.000Z,12.28
2022-08-22T12:47:35.000Z,10.49
2022-08-22T12:57:35.000Z,6.97
2022-08-22T13:02:35.000Z,6.21
2022-08-22T13:07:34.000Z,6.04
2022-08-22T13:12:36.000Z,6.9
2022-08-22T13:17:35.000Z,5.41
2022-08-22T13:22:35.000Z,5.42
2022-08-22T13:27:37.000Z,5.28
2022-08-22T13:32:37.000Z,5.84
2022-08-22T13:37:35.000Z,5.36
2022-08-22T13:42:41.000Z,5.62
2022-08-22T13:47:35.000Z,5.79
2022-08-22T13:52:40.000Z,5.79
2022-08-22T13:57:35.000Z,5.61
2022-08-22T14:02:41.000Z,6.01
2022-08-22T14:07:35.000Z,5.76
2022-08-22T14:12:35.000Z,5.22
2022-08-22T14:17:35.000Z,5.36
2022-08-22T14:22:42.000Z,6.01
2022-08-22T14:27:36.000Z,6.32
2022-08-22T14:32:38.000Z,5.88
2022-08-22T14:37:37.000Z,5.69
2022-08-22T14:42:36.000Z,6.11
2022-08-22T14:48:05.000Z,6.26
2022-08-22T14:52:39.000Z,5.94
2022-08-22T14:57:35.000Z,5.54
2022-08-22T15:02:34.000Z,5.69
2022-08-22T15:07:35.000Z,5.69
2022-08-22T15:12:34.000Z,7.04
2022-08-22T15:17:35.000Z,8.91
2022-08-22T15:22:37.000Z,9.53
2022-08-22T15:27:37.000Z,9.39
2022-08-22T15:32:36.000Z,9.58
2022-08-22T15:37:35.000Z,9.65
2022-08-22T15:42:35.000Z,10.6
2022-08-22T15:47:40.000Z,10.09
2022-08-22T15:52:36.000Z,9.9
2022-08-22T15:57:35.000Z,10.27
2022-08-22T16:02:37.000Z,10.61
2022-08-22T16:07:35.000Z,11.13
2022-08-22T16:12:35.000Z,12.42
2022-08-22T16:17:34.000Z,12.42
2022-08-22T16:22:35.000Z,12.84
2022-08-22T16:27:35.000Z,13.95
2022-08-22T16:32:34.000Z,14.49
2022-08-22T16:37:35.000Z,14.92
2022-08-22T16:42:35.000Z,15.1
2022-08-22T16:47:34.000Z,15.74
2022-08-22T16:52:34.000Z,15.68
2022-08-22T16:57:35.000Z,16.15
2022-08-22T17:02:35.000Z,15.94
2022-08-22T17:07:35.000Z,15.71
2022-08-22T17:12:35.000Z,17.34
2022-08-22T17:17:35.000Z,17.71
2022-08-22T17:22:39.000Z,18.38
2022-08-22T17:27:35.000Z,17.11
2022-08-22T17:32:35.000Z,17.11
2022-08-22T17:37:35.000Z,17.6
2022-08-22T17:47:35.000Z,18.11
2022-08-22T17:52:34.000Z,19.84
2022-08-22T17:57:35.000Z,20.21
2022-08-22T18:02:35.000Z,21.03
2022-08-22T18:07:34.000Z,21.8
2022-08-22T18:12:35.000Z,23.76
2022-08-22T18:17:35.000Z,25.25
2022-08-22T18:22:34.000Z,27.59
2022-08-22T18:27:45.000Z,29
2022-08-22T18:32:36.000Z,31.69
2022-08-22T18:37:35.000Z,31.15
2022-08-22T18:42:35.000Z,31.15
2022-08-22T18:47:34.000Z,31.94
2022-08-22T18:52:34.000Z,32.21
2022-08-22T18:57:35.000Z,32.16
2022-08-22T19:02:35.000Z,33.27
2022-08-22T19:07:35.000Z,34.76
2022-08-22T19:12:35.000Z,37.16
2022-08-22T19:17:35.000Z,37.96
2022-08-22T19:27:34.000Z,42.12
2022-08-22T19:32:35.000Z,42.21
2022-08-22T19:37:43.000Z,46.61
2022-08-22T19:42:34.000Z,48.1
2022-08-22T19:47:35.000Z,50.57
2022-08-22T19:52:35.000Z,52.19
2022-08-22T19:57:35.000Z,53.58
2022-08-22T20:02:35.000Z,51.87
2022-08-22T20:07:34.000Z,49.75
2022-08-22T20:12:35.000Z,49.08
2022-08-22T20:17:35.000Z,49.08
2022-08-22T20:22:35.000Z,50.19
2022-08-22T20:27:35.000Z,47.79
2022-08-22T20:32:35.000Z,45.89
2022-08-22T20:37:55.000Z,45.13
2022-08-22T20:42:35.000Z,47.6
2022-08-22T20:47:35.000Z,50.31
2022-08-22T20:57:35.000Z,51.65
2022-08-22T21:02:34.000Z,52.09
2022-08-22T21:07:35.000Z,51.84
2022-08-22T21:12:34.000Z,50.87
2022-08-22T21:17:36.000Z,50.32
2022-08-22T21:22:37.000Z,51.35
2022-08-22T21:27:35.000Z,50.98
2022-08-22T21:32:34.000Z,51.41
2022-08-22T21:37:35.000Z,49.91
2022-08-22T21:42:35.000Z,49.17
2022-08-22T21:47:41.000Z,50.2
2022-08-22T21:52:35.000Z,49.09
2022-08-22T21:57:34.000Z,49.07
2022-08-22T22:02:37.000Z,49.07
2022-08-22T22:07:35.000Z,50
2022-08-22T22:12:34.000Z,48.9
2022-08-22T22:17:35.000Z,48.5
2022-08-22T22:22:35.000Z,46.72
2022-08-22T22:27:34.000Z,47.29
2022-08-22T22:32:34.000Z,47.44
2022-08-22T22:37:35.000Z,45.77
2022-08-22T22:42:35.000Z,45.47
2022-08-22T22:47:35.000Z,44.7
2022-08-22T22:52:35.000Z,44.08
2022-08-22T22:57:35.000Z,42.27
2022-08-22T23:02:35.000Z,41.82
2022-08-22T23:07:36.000Z,42.63
2022-08-22T23:12:34.000Z,42.63
2022-08-22T23:17:35.000Z,42.63
2022-08-22T23:22:35.000Z,42.43
2022-08-22T23:27:34.000Z,41.61
2022-08-22T23:32:35.000Z,42.15
2022-08-22T23:37:35.000Z,44.16
2022-08-22T23:42:34.000Z,44.44
2022-08-22T23:47:35.000Z,42.79
2022-08-22T23:52:35.000Z,42.83
2022-08-22T23:57:37.000Z,42.71
